Aviation Digital Data Service (ADDS)

Output produced by METARs form (1537 UTC 24 August 2019)
found at http://www.aviationweather.gov/metar/data/
 
TAF ZBTJ 240856Z 2412/2512 18004MPS 5000 HZ NSC TX31/2507Z TN20/2421Z